createdAt,value
2022-11-24T00:01:18.190Z,2.80
2022-11-24T00:03:46.955Z,2.80
2022-11-24T00:06:15.935Z,2.90
2022-11-24T00:08:44.084Z,2.92
2022-11-24T00:11:16.296Z,3.28
2022-11-24T00:13:43.493Z,3.55
2022-11-24T00:16:11.477Z,3.08
2022-11-24T00:18:40.097Z,2.72
2022-11-24T00:21:06.781Z,3.13
2022-11-24T00:23:33.589Z,3.15
2022-11-24T00:26:12.045Z,3.08
2022-11-24T00:28:39.140Z,3.03
2022-11-24T00:31:17.441Z,3.05
2022-11-24T00:33:44.383Z,3.00
2022-11-24T00:36:10.816Z,3.47
2022-11-24T00:38:37.137Z,3.63
2022-11-24T00:41:03.659Z,3.17
2022-11-24T00:43:29.988Z,3.40
2022-11-24T00:45:56.344Z,3.75
2022-11-24T00:48:22.872Z,3.75
2022-11-24T00:51:00.417Z,3.20
2022-11-24T00:53:27.461Z,3.80
2022-11-24T00:55:55.103Z,3.53
2022-11-24T00:58:22.794Z,3.38
2022-11-24T01:00:49.950Z,4.00
2022-11-24T01:03:17.344Z,3.72
2022-11-24T01:05:43.648Z,4.15
2022-11-24T01:08:10.360Z,4.13
2022-11-24T01:10:36.727Z,4.35
2022-11-24T01:13:03.648Z,4.07
2022-11-24T01:15:30.100Z,3.70
2022-11-24T01:17:57.133Z,4.28
2022-11-24T01:20:23.799Z,3.80
2022-11-24T01:22:50.931Z,4.47
2022-11-24T01:25:17.285Z,4.45
2022-11-24T01:27:43.684Z,4.07
2022-11-24T01:30:10.680Z,4.10
2022-11-24T01:32:37.061Z,4.70
2022-11-24T01:35:04.133Z,4.18
2022-11-24T01:37:30.517Z,4.15
2022-11-24T01:39:56.901Z,5.30
2022-11-24T01:42:23.568Z,4.35
2022-11-24T01:45:30.889Z,4.68
2022-11-24T01:47:57.902Z,4.30
2022-11-24T01:50:24.694Z,4.47
2022-11-24T01:52:53.832Z,4.57
2022-11-24T01:55:27.897Z,4.40
2022-11-24T01:58:01.718Z,4.43
2022-11-24T02:00:28.172Z,4.70
2022-11-24T02:02:54.533Z,4.43
2022-11-24T02:05:33.526Z,4.53
2022-11-24T02:08:01.881Z,4.25
2022-11-24T02:10:28.942Z,4.72
2022-11-24T02:12:58.150Z,4.65
2022-11-24T02:15:25.221Z,4.88
2022-11-24T02:17:51.522Z,5.18
2022-11-24T02:20:18.338Z,5.65
2022-11-24T02:23:08.829Z,4.75
2022-11-24T02:25:46.910Z,4.32
2022-11-24T02:28:18.468Z,5.00
2022-11-24T02:30:45.478Z,5.13
2022-11-24T02:33:13.239Z,5.13
2022-11-24T02:35:40.084Z,4.60
2022-11-24T02:38:06.458Z,5.30
2022-11-24T02:40:33.249Z,4.25
2022-11-24T02:43:07.391Z,4.60
2022-11-24T02:45:33.726Z,4.60
2022-11-24T02:48:00.024Z,4.90
2022-11-24T02:50:26.393Z,4.75
2022-11-24T02:52:52.840Z,4.78
2022-11-24T02:55:19.149Z,4.40
2022-11-24T02:57:45.803Z,4.93
2022-11-24T03:00:12.644Z,4.63
2022-11-24T03:02:39.055Z,5.07
2022-11-24T03:05:05.829Z,4.90
2022-11-24T03:07:32.205Z,5.40
2022-11-24T03:09:58.552Z,5.75
2022-11-24T03:12:24.910Z,5.75
2022-11-24T03:14:51.205Z,4.88
2022-11-24T03:17:17.541Z,5.75
2022-11-24T03:19:43.858Z,5.28
2022-11-24T03:22:12.551Z,5.18
2022-11-24T03:24:38.931Z,5.50
2022-11-24T03:27:05.294Z,5.18
2022-11-24T03:29:31.647Z,5.13
2022-11-24T03:31:57.978Z,5.00
2022-11-24T03:34:24.324Z,5.68
2022-11-24T03:36:50.678Z,5.57
2022-11-24T03:39:16.968Z,5.13
2022-11-24T03:41:43.309Z,5.60
2022-11-24T03:44:09.653Z,4.93
2022-11-24T03:46:35.962Z,4.70
2022-11-24T03:49:02.405Z,5.93
2022-11-24T03:51:28.693Z,4.57
2022-11-24T03:53:55.022Z,4.93
2022-11-24T03:56:21.328Z,4.45
2022-11-24T03:58:47.625Z,5.05
2022-11-24T04:01:14.124Z,5.18
2022-11-24T04:03:40.544Z,4.53
2022-11-24T04:06:06.881Z,4.60
2022-11-24T04:08:33.267Z,4.97
2022-11-24T04:10:59.576Z,4.70
2022-11-24T04:13:26.055Z,4.47
2022-11-24T04:15:53.056Z,4.65
2022-11-24T04:18:19.794Z,4.82
2022-11-24T04:20:48.740Z,4.72
2022-11-24T04:23:15.056Z,4.47
2022-11-24T04:25:41.350Z,4.80
2022-11-24T04:28:07.661Z,4.57
2022-11-24T04:30:33.944Z,4.65
2022-11-24T04:33:00.337Z,5.15
2022-11-24T04:35:26.696Z,5.15
2022-11-24T04:37:52.998Z,4.38
2022-11-24T04:40:19.713Z,4.18
2022-11-24T04:42:55.867Z,4.93
2022-11-24T04:45:23.574Z,4.90
2022-11-24T04:47:50.031Z,5.50
2022-11-24T04:50:16.622Z,4.43
2022-11-24T04:52:42.958Z,5.18
2022-11-24T04:55:09.624Z,5.38
2022-11-24T04:57:35.954Z,4.95
2022-11-24T05:00:02.292Z,5.10
2022-11-24T05:02:28.600Z,4.22
2022-11-24T05:04:54.927Z,4.32
2022-11-24T05:07:21.279Z,4.15
2022-11-24T05:09:58.942Z,4.35
2022-11-24T05:12:27.444Z,4.70
2022-11-24T05:14:53.758Z,4.20
2022-11-24T05:17:20.057Z,4.95
2022-11-24T05:19:46.368Z,5.00
2022-11-24T05:22:12.792Z,5.00
2022-11-24T05:24:39.105Z,3.90
2022-11-24T05:27:05.408Z,4.22
2022-11-24T05:29:31.734Z,4.25
2022-11-24T05:31:58.036Z,4.35
2022-11-24T05:34:24.350Z,4.43
2022-11-24T05:36:50.670Z,5.40
2022-11-24T05:39:16.977Z,4.22
2022-11-24T05:41:43.269Z,4.38
2022-11-24T05:44:09.586Z,4.07
2022-11-24T05:46:36.013Z,5.03
2022-11-24T05:49:02.439Z,4.57
2022-11-24T05:51:29.020Z,4.88
2022-11-24T05:53:55.321Z,3.70
2022-11-24T05:56:21.663Z,3.95
2022-11-24T05:58:47.956Z,4.35
2022-11-24T06:01:14.284Z,4.20
2022-11-24T06:03:40.600Z,4.40
2022-11-24T06:06:07.226Z,4.63
2022-11-24T06:08:33.964Z,4.00
2022-11-24T06:11:03.606Z,3.92
2022-11-24T06:13:29.934Z,4.70
2022-11-24T06:15:59.076Z,4.43
2022-11-24T06:18:25.458Z,4.47
2022-11-24T06:21:09.833Z,5.00
2022-11-24T06:23:37.470Z,4.28
2022-11-24T06:26:04.219Z,3.53
2022-11-24T06:28:30.790Z,4.15
2022-11-24T06:31:01.292Z,4.32
2022-11-24T06:33:31.393Z,4.75
2022-11-24T06:36:05.578Z,4.28
2022-11-24T06:38:32.084Z,4.68
2022-11-24T06:41:03.427Z,4.53
2022-11-24T06:43:30.831Z,4.57
2022-11-24T06:45:57.957Z,5.00
2022-11-24T06:48:25.573Z,4.75
2022-11-24T06:50:52.119Z,5.85
2022-11-24T06:53:18.949Z,4.85
2022-11-24T06:55:46.158Z,4.65
2022-11-24T06:58:12.755Z,4.50
2022-11-24T07:00:39.339Z,3.92
2022-11-24T07:03:05.715Z,4.57
2022-11-24T07:05:32.076Z,4.63
2022-11-24T07:08:01.157Z,5.40
2022-11-24T07:10:27.448Z,4.68
2022-11-24T07:12:54.032Z,4.85
2022-11-24T07:15:20.377Z,4.28
2022-11-24T07:17:46.672Z,4.85
2022-11-24T07:20:13.001Z,4.10
2022-11-24T07:22:39.298Z,5.43
2022-11-24T07:25:06.090Z,4.82
2022-11-24T07:27:32.421Z,4.43
2022-11-24T07:29:58.729Z,4.63
2022-11-24T07:32:25.031Z,5.57
2022-11-24T07:34:51.372Z,6.35
2022-11-24T07:37:17.668Z,5.78
2022-11-24T07:39:44.014Z,5.30
2022-11-24T07:42:10.341Z,5.25
2022-11-24T07:44:37.090Z,5.57
2022-11-24T07:47:03.527Z,5.38
2022-11-24T07:49:29.843Z,5.22
2022-11-24T07:51:56.141Z,4.30
2022-11-24T07:54:22.632Z,4.97
2022-11-24T07:56:49.241Z,5.50
2022-11-24T07:59:15.568Z,4.18
2022-11-24T08:01:41.979Z,5.60
2022-11-24T08:04:08.375Z,4.63
2022-11-24T08:06:39.715Z,4.80
2022-11-24T08:09:08.298Z,4.88
2022-11-24T08:11:34.705Z,4.32
2022-11-24T08:14:01.009Z,4.72
2022-11-24T08:16:27.392Z,5.18
2022-11-24T08:18:55.416Z,5.68
2022-11-24T08:21:22.859Z,5.20
2022-11-24T08:23:49.240Z,5.22
2022-11-24T08:26:17.705Z,5.30
2022-11-24T08:28:45.673Z,5.25
2022-11-24T08:31:14.285Z,5.05
2022-11-24T08:33:41.070Z,4.90
2022-11-24T08:36:17.050Z,5.65
2022-11-24T08:38:43.782Z,5.18
2022-11-24T08:41:12.532Z,4.95
2022-11-24T08:43:39.324Z,4.55
2022-11-24T08:46:08.687Z,5.18
2022-11-24T08:48:36.177Z,5.20
2022-11-24T08:51:14.056Z,5.28
2022-11-24T08:53:41.456Z,4.43
2022-11-24T08:56:10.585Z,5.35
2022-11-24T08:58:37.818Z,5.00
2022-11-24T09:01:13.119Z,5.07
2022-11-24T09:03:43.548Z,4.68
2022-11-24T09:06:15.626Z,4.22
2022-11-24T09:08:42.035Z,4.97
2022-11-24T09:11:13.957Z,4.38
2022-11-24T09:13:40.609Z,4.38
2022-11-24T09:16:12.886Z,4.60
2022-11-24T09:18:39.948Z,4.95
2022-11-24T09:21:17.360Z,4.72
2022-11-24T09:23:45.404Z,4.07
2022-11-24T09:26:14.625Z,4.97
2022-11-24T09:28:41.599Z,4.50
2022-11-24T09:31:10.908Z,4.82
2022-11-24T09:33:38.248Z,5.03
2022-11-24T09:36:05.325Z,4.53
2022-11-24T09:38:32.207Z,4.78
2022-11-24T09:41:19.747Z,4.20
2022-11-24T09:44:12.933Z,4.85
2022-11-24T09:47:08.920Z,5.22
2022-11-24T09:49:51.644Z,5.00
2022-11-24T09:52:28.503Z,5.15
2022-11-24T09:55:00.260Z,4.95
2022-11-24T09:57:35.823Z,5.68
2022-11-24T10:00:12.085Z,4.70
2022-11-24T10:05:06.329Z,5.50
2022-11-24T10:08:08.114Z,4.22
2022-11-24T10:10:54.930Z,4.38
2022-11-24T10:13:42.618Z,5.13
2022-11-24T10:16:22.942Z,5.30
2022-11-24T10:19:34.456Z,4.70
2022-11-24T10:22:50.491Z,5.65
2022-11-24T10:25:30.385Z,5.25
2022-11-24T10:28:03.077Z,5.63
2022-11-24T10:30:29.754Z,5.20
2022-11-24T10:33:00.470Z,5.18
2022-11-24T10:35:35.985Z,5.82
2022-11-24T10:38:15.967Z,5.65
2022-11-24T10:41:02.984Z,5.38
2022-11-24T10:43:29.645Z,5.32
2022-11-24T10:46:11.572Z,5.00
2022-11-24T10:48:50.273Z,5.57
2022-11-24T10:51:30.531Z,6.47
2022-11-24T10:54:07.007Z,5.32
2022-11-24T10:56:40.961Z,6.05
2022-11-24T10:59:39.805Z,6.67
2022-11-24T11:02:36.634Z,5.82
2022-11-24T11:05:39.245Z,6.45
2022-11-24T11:08:17.501Z,5.30
2022-11-24T11:10:45.342Z,5.57
2022-11-24T11:13:29.584Z,4.75
2022-11-24T11:15:58.158Z,5.30
2022-11-24T11:18:32.682Z,5.65
2022-11-24T11:21:02.050Z,5.63
2022-11-24T11:23:32.174Z,5.97
2022-11-24T11:26:38.113Z,5.18
2022-11-24T11:35:12.168Z,6.13
2022-11-24T11:37:38.578Z,5.70
2022-11-24T11:40:16.106Z,5.90
2022-11-24T11:43:02.496Z,6.70
2022-11-24T11:45:44.999Z,5.72
2022-11-24T11:48:14.020Z,7.00
2022-11-24T11:51:14.861Z,6.47
2022-11-24T11:53:49.933Z,6.82
2022-11-24T11:56:27.394Z,6.90
2022-11-24T11:58:56.641Z,6.75
2022-11-24T12:01:25.990Z,6.82
2022-11-24T12:04:17.329Z,5.45
2022-11-24T12:07:01.596Z,7.47
2022-11-24T12:09:46.745Z,6.70
2022-11-24T12:12:31.061Z,8.45
2022-11-24T12:15:10.802Z,6.75
2022-11-24T12:18:40.134Z,7.82
2022-11-24T12:21:09.064Z,9.48
2022-11-24T12:23:42.721Z,6.40
2022-11-24T12:26:24.969Z,7.28
2022-11-24T12:29:05.996Z,5.90
2022-11-24T12:31:54.122Z,6.10
2022-11-24T12:34:35.579Z,5.32
2022-11-24T12:37:20.025Z,5.68
2022-11-24T12:39:59.771Z,5.97
2022-11-24T12:42:28.860Z,6.25
2022-11-24T12:45:14.366Z,6.03
2022-11-24T12:48:11.578Z,6.03
2022-11-24T12:50:40.354Z,5.85
2022-11-24T12:53:14.829Z,5.53
2022-11-24T12:55:42.739Z,5.45
2022-11-24T12:58:25.204Z,5.68
2022-11-24T13:01:16.436Z,5.85
2022-11-24T13:04:11.563Z,7.05
2022-11-24T13:07:09.050Z,7.10
2022-11-24T13:09:35.411Z,6.55
2022-11-24T13:12:12.694Z,6.80
2022-11-24T13:14:42.804Z,5.95
2022-11-24T13:17:38.347Z,6.47
2022-11-24T13:20:18.997Z,7.00
2022-11-24T13:22:53.987Z,6.60
2022-11-24T13:25:21.974Z,6.90
2022-11-24T13:27:50.614Z,6.55
2022-11-24T13:30:35.276Z,7.03
2022-11-24T13:33:14.261Z,8.23
2022-11-24T13:36:01.458Z,6.90
2022-11-24T13:38:46.287Z,7.53
2022-11-24T13:41:31.282Z,7.90
2022-11-24T13:44:16.082Z,7.60
2022-11-24T13:47:30.535Z,7.47
2022-11-24T13:49:56.910Z,6.70
2022-11-24T13:52:40.225Z,7.70
2022-11-24T13:55:12.494Z,6.90
2022-11-24T13:57:44.532Z,6.00
2022-11-24T14:00:29.716Z,6.90
2022-11-24T14:03:14.774Z,6.30
2022-11-24T14:05:48.509Z,6.85
2022-11-24T14:08:20.915Z,6.60
2022-11-24T14:10:47.304Z,5.80
2022-11-24T14:13:32.877Z,7.05
2022-11-24T14:16:04.495Z,6.90
2022-11-24T14:18:31.876Z,6.85
2022-11-24T14:21:01.258Z,6.07
2022-11-24T14:23:28.073Z,6.10
2022-11-24T14:25:54.667Z,6.78
2022-11-24T14:28:26.391Z,7.13
2022-11-24T14:31:17.807Z,7.00
2022-11-24T14:33:44.229Z,7.43
2022-11-24T14:36:17.980Z,7.43
2022-11-24T14:38:44.589Z,7.15
2022-11-24T14:41:29.003Z,7.70
2022-11-24T14:44:13.691Z,7.03
2022-11-24T14:46:40.381Z,7.28
2022-11-24T14:49:07.334Z,7.55
2022-11-24T14:51:42.820Z,7.50
2022-11-24T14:54:18.869Z,7.22
2022-11-24T14:57:00.566Z,7.55
2022-11-24T14:59:29.384Z,7.80
2022-11-24T15:01:57.163Z,8.73
2022-11-24T15:07:28.122Z,7.22
2022-11-24T15:10:02.719Z,8.10
2022-11-24T15:12:37.634Z,8.48
2022-11-24T15:18:06.422Z,8.70
2022-11-24T15:20:44.001Z,8.90
2022-11-24T15:23:24.679Z,8.73
2022-11-24T15:26:17.760Z,8.35
2022-11-24T15:28:46.543Z,7.70
2022-11-24T15:31:14.415Z,8.75
2022-11-24T15:33:41.754Z,9.88
2022-11-24T15:36:08.164Z,9.23
2022-11-24T15:38:34.505Z,8.73
2022-11-24T15:41:01.684Z,8.02
2022-11-24T15:43:33.973Z,9.50
2022-11-24T15:46:01.765Z,8.05
2022-11-24T15:48:28.841Z,8.63
2022-11-24T15:50:56.625Z,8.55
2022-11-24T15:53:35.908Z,8.30
2022-11-24T15:56:03.887Z,8.27
2022-11-24T15:58:30.229Z,9.20
2022-11-24T16:00:56.700Z,8.38
2022-11-24T16:06:16.720Z,9.05
2022-11-24T16:08:45.765Z,8.63
2022-11-24T16:11:12.307Z,9.70
2022-11-24T16:13:38.717Z,9.93
2022-11-24T16:16:06.628Z,9.02
2022-11-24T16:18:32.983Z,9.82
2022-11-24T16:20:59.288Z,9.50
2022-11-24T16:23:25.628Z,10.43
2022-11-24T16:25:51.948Z,10.57
2022-11-24T16:28:18.278Z,10.40
2022-11-24T16:30:48.778Z,11.05
2022-11-24T16:33:15.499Z,11.18
2022-11-24T16:35:41.839Z,11.82
2022-11-24T16:38:17.230Z,12.00
2022-11-24T16:40:43.744Z,12.27
2022-11-24T16:43:10.127Z,12.95
2022-11-24T16:45:39.607Z,13.23
2022-11-24T16:48:08.595Z,13.35
2022-11-24T16:50:34.956Z,13.07
2022-11-24T16:53:01.256Z,13.80
2022-11-24T16:55:27.556Z,14.07
2022-11-24T16:57:53.911Z,14.20
2022-11-24T17:00:20.375Z,13.30
2022-11-24T17:02:46.745Z,14.32
2022-11-24T17:05:13.070Z,13.27
2022-11-24T17:07:39.455Z,13.73
2022-11-24T17:10:07.173Z,14.32
2022-11-24T17:12:35.485Z,13.52
2022-11-24T17:15:31.223Z,14.40
2022-11-24T17:18:08.738Z,14.32
2022-11-24T17:20:34.457Z,14.80
2022-11-24T17:23:00.778Z,13.70
2022-11-24T17:25:27.180Z,14.77
2022-11-24T17:27:53.758Z,14.20
2022-11-24T17:30:20.237Z,14.63
2022-11-24T17:32:46.573Z,16.30
2022-11-24T17:35:12.893Z,15.55
2022-11-24T17:37:39.221Z,15.45
2022-11-24T17:40:27.346Z,15.13
2022-11-24T17:42:52.570Z,15.82
2022-11-24T17:45:18.921Z,43.35
2022-11-24T17:47:45.224Z,30.30
2022-11-24T17:50:11.643Z,20.42
2022-11-24T17:52:37.957Z,101.32
2022-11-24T17:55:04.536Z,48.85
2022-11-24T17:57:30.839Z,25.67
2022-11-24T18:00:00.276Z,47.83
2022-11-24T18:02:26.683Z,32.88
2022-11-24T18:04:56.174Z,27.92
2022-11-24T18:07:22.565Z,28.65
2022-11-24T18:09:48.904Z,59.05
2022-11-24T18:12:15.224Z,33.55
2022-11-24T18:14:41.565Z,70.32
2022-11-24T18:17:07.933Z,38.45
2022-11-24T18:19:34.353Z,31.25
2022-11-24T18:22:00.705Z,47.45
2022-11-24T18:24:27.060Z,47.88
2022-11-24T18:26:53.410Z,61.97
2022-11-24T18:29:19.737Z,46.47
2022-11-24T18:31:46.155Z,57.63
2022-11-24T18:34:12.483Z,78.70
2022-11-24T18:36:38.866Z,53.30
2022-11-24T18:39:07.943Z,19.67
2022-11-24T18:41:35.020Z,21.52
2022-11-24T18:44:01.872Z,24.27
2022-11-24T18:46:28.251Z,31.20
2022-11-24T18:48:54.725Z,18.23
2022-11-24T18:51:21.041Z,18.42
2022-11-24T18:53:52.005Z,30.48
2022-11-24T18:56:18.327Z,19.45
2022-11-24T18:58:45.103Z,24.17
2022-11-24T19:01:20.186Z,19.40
2022-11-24T19:03:57.905Z,26.75
2022-11-24T19:06:44.754Z,18.38
2022-11-24T19:09:14.468Z,16.95
2022-11-24T19:11:43.131Z,18.25
2022-11-24T19:14:13.362Z,21.73
2022-11-24T19:16:40.263Z,27.15
2022-11-24T19:19:07.586Z,17.92
2022-11-24T19:21:36.617Z,23.25
2022-11-24T19:24:05.678Z,18.27
2022-11-24T19:26:33.119Z,18.70
2022-11-24T19:28:59.487Z,19.10
2022-11-24T19:31:26.248Z,23.20
2022-11-24T19:33:52.639Z,22.52
2022-11-24T19:36:20.788Z,21.75
2022-11-24T19:38:52.300Z,18.75
2022-11-24T19:41:20.741Z,16.85
2022-11-24T19:43:47.882Z,20.48
2022-11-24T19:46:17.146Z,23.92
2022-11-24T19:48:51.010Z,19.05
2022-11-24T19:51:24.858Z,21.13
2022-11-24T19:53:51.758Z,21.02
2022-11-24T19:56:23.618Z,16.92
2022-11-24T19:58:51.430Z,20.77
2022-11-24T20:01:23.763Z,20.17
2022-11-24T20:04:01.536Z,17.58
2022-11-24T20:06:32.506Z,16.55
2022-11-24T20:09:00.744Z,15.75
2022-11-24T20:11:28.186Z,16.67
2022-11-24T20:13:55.055Z,15.95
2022-11-24T20:16:26.878Z,15.35
2022-11-24T20:19:12.922Z,15.85
2022-11-24T20:21:40.252Z,15.15
2022-11-24T20:24:10.712Z,14.82
2022-11-24T20:26:40.365Z,14.40
2022-11-24T20:29:07.254Z,14.90
2022-11-24T20:31:36.538Z,13.45
2022-11-24T20:34:04.677Z,13.45
2022-11-24T20:36:33.229Z,14.30
2022-11-24T20:39:03.981Z,14.13
2022-11-24T20:41:33.211Z,13.07
2022-11-24T20:44:02.497Z,13.15
2022-11-24T20:46:31.589Z,14.55
2022-11-24T20:48:58.837Z,14.20
2022-11-24T20:51:30.816Z,13.43
2022-11-24T20:54:00.363Z,14.40
2022-11-24T20:56:32.378Z,13.88
2022-11-24T20:58:59.573Z,14.55
2022-11-24T21:01:31.595Z,13.60
2022-11-24T21:03:59.385Z,13.77
2022-11-24T21:06:27.272Z,14.77
2022-11-24T21:08:56.813Z,13.48
2022-11-24T21:11:25.893Z,13.13
2022-11-24T21:13:52.776Z,12.70
2022-11-24T21:16:24.234Z,12.55
2022-11-24T21:18:52.825Z,12.60
2022-11-24T21:21:21.132Z,12.43
2022-11-24T21:23:47.786Z,12.98
2022-11-24T21:26:17.145Z,11.50
2022-11-24T21:28:47.036Z,12.25
2022-11-24T21:31:16.596Z,10.77
2022-11-24T21:33:47.522Z,10.35
2022-11-24T21:36:15.762Z,9.77
2022-11-24T21:38:42.568Z,9.63
2022-11-24T21:41:10.602Z,10.75
2022-11-24T21:43:37.263Z,11.30
2022-11-24T21:46:09.914Z,11.20
2022-11-24T21:48:37.444Z,11.07
2022-11-24T21:51:06.331Z,12.10
2022-11-24T21:53:35.165Z,11.20
2022-11-24T21:56:04.038Z,12.15
2022-11-24T21:58:30.419Z,11.02
2022-11-24T22:01:05.081Z,10.63
2022-11-24T22:03:31.542Z,12.27
2022-11-24T22:05:59.300Z,10.90
2022-11-24T22:08:27.048Z,12.60
2022-11-24T22:10:53.953Z,11.18
2022-11-24T22:13:20.574Z,10.98
2022-11-24T22:15:46.892Z,11.27
2022-11-24T22:18:13.245Z,13.45
2022-11-24T22:20:39.600Z,11.93
2022-11-24T22:23:05.923Z,12.18
2022-11-24T22:25:33.311Z,11.60
2022-11-24T22:27:59.619Z,11.77
2022-11-24T22:30:25.941Z,11.75
2022-11-24T22:32:53.248Z,11.75
2022-11-24T22:35:19.561Z,12.05
2022-11-24T22:37:45.866Z,11.40
2022-11-24T22:40:12.311Z,10.77
2022-11-24T22:42:38.604Z,11.32
2022-11-24T22:45:05.445Z,10.25
2022-11-24T22:47:31.744Z,10.27
2022-11-24T22:49:58.094Z,11.10
2022-11-24T22:52:24.404Z,11.13
2022-11-24T22:54:50.713Z,10.40
2022-11-24T22:57:17.019Z,11.45
2022-11-24T22:59:43.325Z,10.30
2022-11-24T23:02:09.658Z,10.25
2022-11-24T23:04:36.127Z,11.20
2022-11-24T23:07:02.563Z,10.13
2022-11-24T23:09:28.872Z,9.40
2022-11-24T23:11:55.181Z,10.35
2022-11-24T23:14:21.497Z,10.73
2022-11-24T23:16:47.878Z,10.02
2022-11-24T23:19:14.417Z,9.90
2022-11-24T23:21:40.752Z,9.05
2022-11-24T23:24:08.294Z,9.95
2022-11-24T23:26:36.971Z,9.93
2022-11-24T23:29:04.420Z,9.35
2022-11-24T23:31:31.335Z,10.05
2022-11-24T23:34:02.214Z,9.77
2022-11-24T23:36:29.862Z,9.70
2022-11-24T23:38:56.412Z,9.45
2022-11-24T23:41:24.976Z,10.05
2022-11-24T23:43:51.668Z,9.43
2022-11-24T23:46:20.414Z,8.38
2022-11-24T23:48:46.890Z,9.18
2022-11-24T23:51:18.355Z,8.35
2022-11-24T23:53:45.034Z,9.50
2022-11-24T23:56:13.354Z,9.63
2022-11-24T23:58:40.086Z,9.57
